Time,TemperatureF,DewpointF,PressureIn,WindDirection,WindDirectionDegrees,WindSpeedMPH,WindSpeedGustMPH,Humidity,HourlyPrecipIn,Conditions,Clouds,dailyrainin,SoftwareType,DateUTC
2013-03-26 00:00:00,33.8,21.9,29.72,NW,318,0.0,0.0,61,0.00,,---,0.00,VWS V14.01,2013-03-26 04:00:00,
2013-03-26 00:03:00,33.6,21.7,29.72,West,276,0.0,3.9,61,0.00,,---,0.00,VWS V14.01,2013-03-26 04:03:00,
2013-03-26 00:08:00,33.6,21.7,29.72,West,278,3.9,3.9,61,0.00,,---,0.00,VWS V14.01,2013-03-26 04:08:00,
2013-03-26 00:13:00,33.6,21.7,29.72,ENE,78,0.0,0.0,61,0.00,,---,0.00,VWS V14.01,2013-03-26 04:13:00,
2013-03-26 00:18:00,33.6,21.7,29.72,NW,312,0.0,3.2,61,0.00,,---,0.00,VWS V14.01,2013-03-26 04:18:00,
2013-03-26 00:23:00,33.4,21.5,29.72,North,0,0.0,3.2,61,0.00,,---,0.00,VWS V14.01,2013-03-26 04:23:00,
2013-03-26 00:28:00,33.4,21.5,29.75,NNW,346,0.0,4.5,61,0.00,,---,0.00,VWS V14.01,2013-03-26 04:28:00,
2013-03-26 00:33:00,33.4,22.0,29.75,NNW,342,0.0,0.0,63,0.00,,---,0.00,VWS V14.01,2013-03-26 04:33:00,
2013-03-26 00:38:00,33.3,21.9,29.75,NW,317,0.0,0.0,63,0.00,,---,0.00,VWS V14.01,2013-03-26 04:38:00,
2013-03-26 00:43:00,33.3,21.9,29.75,NW,326,3.9,5.2,63,0.00,,---,0.00,VWS V14.01,2013-03-26 04:43:00,
2013-03-26 00:48:00,33.1,21.7,29.75,NNW,348,4.5,4.5,63,0.00,,---,0.00,VWS V14.01,2013-03-26 04:48:00,
2013-03-26 00:53:00,33.1,21.7,29.75,NW,325,3.9,5.8,63,0.00,,---,0.00,VWS V14.01,2013-03-26 04:53:00,
2013-03-26 00:58:00,33.1,21.7,29.75,NNW,335,4.5,4.5,63,0.00,,---,0.00,VWS V14.01,2013-03-26 04:58:00,
2013-03-26 01:03:00,33.1,21.7,29.75,NNW,327,3.2,7.1,63,0.00,,---,0.00,VWS V14.01,2013-03-26 05:03:00,
2013-03-26 01:09:00,33.1,21.7,29.75,NNW,331,3.9,3.9,63,0.00,,---,0.00,VWS V14.01,2013-03-26 05:09:00,
2013-03-26 01:14:00,33.1,21.7,29.75,NW,326,3.9,5.2,63,0.00,,---,0.00,VWS V14.01,2013-03-26 05:14:00,
2013-03-26 01:19:00,33.1,21.7,29.75,NW,325,3.9,5.8,63,0.00,,---,0.00,VWS V14.01,2013-03-26 05:19:00,
2013-03-26 01:24:00,33.3,21.9,29.75,NW,314,4.5,5.2,63,0.00,,---,0.00,VWS V14.01,2013-03-26 05:24:00,
2013-03-26 01:29:00,33.3,22.4,29.75,South,188,3.2,4.5,64,0.00,,---,0.00,VWS V14.01,2013-03-26 05:29:00,
2013-03-26 01:34:00,33.4,22.6,29.75,NNE,12,4.5,4.5,64,0.00,,---,0.00,VWS V14.01,2013-03-26 05:34:00,
2013-03-26 01:39:00,33.6,22.7,29.75,NNW,340,3.9,5.8,64,0.00,,---,0.00,VWS V14.01,2013-03-26 05:39:00,
2013-03-26 01:44:00,33.6,22.7,29.75,NNW,333,3.2,4.5,64,0.00,,---,0.00,VWS V14.01,2013-03-26 05:44:00,
2013-03-26 01:49:00,33.8,22.4,29.75,NNW,344,0.0,0.0,63,0.00,,---,0.00,VWS V14.01,2013-03-26 05:49:00,
2013-03-26 01:54:00,33.8,22.4,29.75,NNW,328,3.2,3.2,63,0.00,,---,0.00,VWS V14.01,2013-03-26 05:54:00,
2013-03-26 01:59:00,33.8,22.4,29.75,NNW,338,3.9,4.5,63,0.00,,---,0.00,VWS V14.01,2013-03-26 05:59:00,
2013-03-26 02:04:00,33.8,22.4,29.75,NNW,337,0.0,0.0,63,0.00,,---,0.00,VWS V14.01,2013-03-26 06:04:00,
2013-03-26 02:10:00,33.8,22.4,29.75,NNW,343,3.2,3.2,63,0.00,,---,0.00,VWS V14.01,2013-03-26 06:10:00,
2013-03-26 02:15:00,33.8,22.4,29.75,NNW,341,0.0,3.9,63,0.00,,---,0.00,VWS V14.01,2013-03-26 06:15:00,
2013-03-26 02:20:00,33.6,22.7,29.75,NNW,341,0.0,3.9,64,0.00,,---,0.00,VWS V14.01,2013-03-26 06:20:00,
2013-03-26 02:25:00,33.6,22.7,29.75,NNW,341,0.0,0.0,64,0.00,,---,0.00,VWS V14.01,2013-03-26 06:25:00,
2013-03-26 02:30:00,33.4,22.0,29.75,NNW,341,0.0,0.0,63,0.00,,---,0.00,VWS V14.01,2013-03-26 06:30:00,
2013-03-26 02:35:00,33.3,21.9,29.75,NNW,341,0.0,0.0,63,0.00,,---,0.00,VWS V14.01,2013-03-26 06:35:00,
2013-03-26 02:40:00,33.3,21.9,29.75,NNW,341,0.0,0.0,63,0.00,,---,0.00,VWS V14.01,2013-03-26 06:40:00,
2013-03-26 02:45:00,33.1,21.7,29.75,NNW,341,0.0,0.0,63,0.00,,---,0.00,VWS V14.01,2013-03-26 06:45:00,
2013-03-26 02:50:00,33.1,21.7,29.75,NNW,341,0.0,0.0,63,0.00,,---,0.00,VWS V14.01,2013-03-26 06:50:00,
2013-03-26 02:55:00,33.1,21.7,29.75,NNW,341,0.0,0.0,63,0.00,,---,0.00,VWS V14.01,2013-03-26 06:55:00,
2013-03-26 03:00:00,33.1,22.2,29.75,NNW,341,0.0,0.0,64,0.00,,---,0.00,VWS V14.01,2013-03-26 07:00:00,
2013-03-26 03:05:00,33.1,22.2,29.75,NNW,341,0.0,0.0,64,0.00,,---,0.00,VWS V14.01,2013-03-26 07:05:00,
2013-03-26 03:10:00,33.1,22.2,29.75,NNW,341,0.0,0.0,64,0.00,,---,0.00,VWS V14.01,2013-03-26 07:10:00,
2013-03-26 03:16:00,33.3,22.4,29.78,NW,325,0.0,0.0,64,0.00,,---,0.00,VWS V14.01,2013-03-26 07:16:00,
2013-03-26 03:21:00,33.3,22.4,29.78,NNW,337,0.0,0.0,64,0.00,,---,0.00,VWS V14.01,2013-03-26 07:21:00,
2013-03-26 03:26:00,33.4,22.6,29.78,NW,314,0.0,0.0,64,0.00,,---,0.00,VWS V14.01,2013-03-26 07:26:00,
2013-03-26 03:32:00,33.6,22.7,29.78,NW,315,0.0,0.0,64,0.00,,---,0.00,VWS V14.01,2013-03-26 07:32:00,
2013-03-26 03:37:00,33.8,22.9,29.78,WNW,299,3.2,3.2,64,0.00,,---,0.00,VWS V14.01,2013-03-26 07:37:00,
2013-03-26 03:42:00,34.0,23.1,29.78,ESE,102,0.0,0.0,64,0.00,,---,0.00,VWS V14.01,2013-03-26 07:42:00,
2013-03-26 03:47:00,34.2,23.2,29.78,West,265,0.0,0.0,64,0.00,,---,0.00,VWS V14.01,2013-03-26 07:47:00,
2013-03-26 03:52:00,34.2,23.2,29.78,WNW,286,0.0,0.0,64,0.00,,---,0.00,VWS V14.01,2013-03-26 07:52:00,
2013-03-26 03:57:00,34.2,23.2,29.78,NW,322,0.0,0.0,64,0.00,,---,0.00,VWS V14.01,2013-03-26 07:57:00,
2013-03-26 04:02:00,34.2,22.7,29.78,NNW,331,0.0,7.1,63,0.00,,---,0.00,VWS V14.01,2013-03-26 08:02:00,
2013-03-26 04:08:00,34.2,22.7,29.78,NNE,14,3.9,3.9,63,0.00,,---,0.00,VWS V14.01,2013-03-26 08:08:00,
2013-03-26 04:13:00,34.2,22.7,29.78,NNW,340,0.0,0.0,63,0.00,,---,0.00,VWS V14.01,2013-03-26 08:13:00,
2013-03-26 04:18:00,34.2,22.7,29.78,West,278,0.0,4.5,63,0.00,,---,0.00,VWS V14.01,2013-03-26 08:18:00,
2013-03-26 04:23:00,34.2,22.7,29.78,West,260,0.0,0.0,63,0.00,,---,0.00,VWS V14.01,2013-03-26 08:23:00,
2013-03-26 04:28:00,34.2,22.7,29.78,SW,218,0.0,0.0,63,0.00,,---,0.00,VWS V14.01,2013-03-26 08:28:00,
2013-03-26 04:33:00,34.2,22.7,29.78,NNW,331,0.0,0.0,63,0.00,,---,0.00,VWS V14.01,2013-03-26 08:33:00,
2013-03-26 04:38:00,34.0,22.6,29.78,WSW,252,0.0,0.0,63,0.00,,---,0.00,VWS V14.01,2013-03-26 08:38:00,
2013-03-26 04:43:00,34.0,22.6,29.78,NNE,23,4.5,4.5,63,0.00,,---,0.00,VWS V14.01,2013-03-26 08:43:00,
2013-03-26 04:48:00,33.8,22.4,29.78,NNW,328,0.0,0.0,63,0.00,,---,0.00,VWS V14.01,2013-03-26 08:48:00,
2013-03-26 04:54:00,33.8,22.4,29.78,North,353,0.0,3.9,63,0.00,,---,0.00,VWS V14.01,2013-03-26 08:54:00,
2013-03-26 04:59:00,33.8,22.4,29.78,North,7,0.0,0.0,63,0.00,,---,0.00,VWS V14.01,2013-03-26 08:59:00,
2013-03-26 05:04:00,33.8,22.4,29.78,North,353,0.0,3.9,63,0.00,,---,0.00,VWS V14.01,2013-03-26 09:04:00,
2013-03-26 05:09:00,33.8,22.4,29.78,North,349,0.0,0.0,63,0.00,,---,0.00,VWS V14.01,2013-03-26 09:09:00,
2013-03-26 05:14:00,33.8,22.4,29.78,WNW,287,0.0,0.0,63,0.00,,---,0.00,VWS V14.01,2013-03-26 09:14:00,
2013-03-26 05:19:00,33.8,22.4,29.78,WNW,301,0.0,0.0,63,0.00,,---,0.00,VWS V14.01,2013-03-26 09:19:00,
2013-03-26 05:24:00,33.8,22.4,29.78,NW,310,5.2,5.2,63,0.00,,---,0.00,VWS V14.01,2013-03-26 09:24:00,
2013-03-26 05:29:00,33.8,22.4,29.78,NW,305,0.0,0.0,63,0.00,,---,0.00,VWS V14.01,2013-03-26 09:29:00,
2013-03-26 05:34:00,34.0,22.6,29.78,WNW,301,0.0,0.0,63,0.00,,---,0.00,VWS V14.01,2013-03-26 09:34:00,
2013-03-26 05:39:00,34.0,22.6,29.78,West,266,0.0,3.2,63,0.00,,---,0.00,VWS V14.01,2013-03-26 09:39:00,
2013-03-26 05:45:00,34.0,22.6,29.78,WSW,244,4.5,7.1,63,0.00,,---,0.00,VWS V14.01,2013-03-26 09:45:00,
2013-03-26 05:50:00,34.0,22.6,29.78,WSW,254,0.0,0.0,63,0.00,,---,0.00,VWS V14.01,2013-03-26 09:50:00,
2013-03-26 05:55:00,34.2,22.7,29.78,WNW,295,0.0,5.2,63,0.00,,---,0.00,VWS V14.01,2013-03-26 09:55:00,
2013-03-26 06:00:00,34.2,22.7,29.78,NW,311,0.0,3.2,63,0.00,,---,0.00,VWS V14.01,2013-03-26 10:00:00,
2013-03-26 06:05:00,34.2,22.7,29.78,North,353,0.0,0.0,63,0.00,,---,0.00,VWS V14.01,2013-03-26 10:05:00,
2013-03-26 06:10:00,34.2,22.7,29.78,WNW,297,0.0,3.2,63,0.00,,---,0.00,VWS V14.01,2013-03-26 10:10:00,
2013-03-26 06:15:00,34.2,22.7,29.81,WNW,297,3.9,5.2,63,0.00,,---,0.00,VWS V14.01,2013-03-26 10:15:00,
2013-03-26 06:20:00,34.2,22.7,29.81,NW,308,0.0,0.0,63,0.00,,---,0.00,VWS V14.01,2013-03-26 10:20:00,
2013-03-26 06:25:00,34.3,22.9,29.81,NNE,33,3.2,3.2,63,0.00,,---,0.00,VWS V14.01,2013-03-26 10:25:00,
2013-03-26 06:30:00,34.3,22.9,29.81,NW,321,0.0,0.0,63,0.00,,---,0.00,VWS V14.01,2013-03-26 10:30:00,
2013-03-26 06:35:00,34.3,22.9,29.81,NW,317,0.0,0.0,63,0.00,,---,0.00,VWS V14.01,2013-03-26 10:35:00,
2013-03-26 06:40:00,34.3,22.9,29.81,North,357,0.0,0.0,63,0.00,,---,0.00,VWS V14.01,2013-03-26 10:40:00,
2013-03-26 06:45:00,34.3,22.4,29.81,NW,312,0.0,5.8,61,0.00,,---,0.00,VWS V14.01,2013-03-26 10:45:00,
2013-03-26 06:51:00,34.2,22.7,29.81,West,266,0.0,0.0,63,0.00,,---,0.00,VWS V14.01,2013-03-26 10:51:00,
2013-03-26 06:56:00,34.2,22.2,29.81,NW,325,0.0,3.9,61,0.00,,---,0.00,VWS V14.01,2013-03-26 10:56:00,
2013-03-26 07:01:00,34.2,22.2,29.81,NNW,330,3.9,3.9,61,0.00,,---,0.00,VWS V14.01,2013-03-26 11:01:00,
2013-03-26 07:06:00,34.2,22.2,29.81,WNW,294,4.5,4.5,61,0.00,,---,0.00,VWS V14.01,2013-03-26 11:06:00,
2013-03-26 07:11:00,34.2,22.2,29.81,WNW,289,0.0,3.9,61,0.00,,---,0.00,VWS V14.01,2013-03-26 11:11:00,
2013-03-26 07:16:00,34.3,22.4,29.81,NE,53,0.0,4.5,61,0.00,,---,0.00,VWS V14.01,2013-03-26 11:16:00,
2013-03-26 07:22:00,34.3,22.4,29.81,West,276,0.0,3.2,61,0.00,,---,0.00,VWS V14.01,2013-03-26 11:22:00,
2013-03-26 07:27:00,34.3,22.4,29.81,NW,325,3.9,5.2,61,0.00,,---,0.00,VWS V14.01,2013-03-26 11:27:00,
2013-03-26 07:32:00,34.3,22.4,29.81,NW,326,0.0,4.5,61,0.00,,---,0.00,VWS V14.01,2013-03-26 11:32:00,
2013-03-26 07:37:00,34.3,22.4,29.81,West,271,0.0,0.0,61,0.00,,---,0.00,VWS V14.01,2013-03-26 11:37:00,
2013-03-26 07:42:00,34.3,22.4,29.84,West,261,0.0,0.0,61,0.00,,---,0.00,VWS V14.01,2013-03-26 11:42:00,
2013-03-26 07:47:00,34.5,22.5,29.84,NNW,340,0.0,0.0,61,0.00,,---,0.00,VWS V14.01,2013-03-26 11:47:00,
2013-03-26 07:52:00,34.5,22.5,29.84,NNW,345,0.0,3.9,61,0.00,,---,0.00,VWS V14.01,2013-03-26 11:52:00,
2013-03-26 07:57:00,34.5,22.5,29.84,SW,230,4.5,4.5,61,0.00,,---,0.00,VWS V14.01,2013-03-26 11:57:00,
2013-03-26 08:02:00,34.5,22.5,29.84,West,275,0.0,3.9,61,0.00,,---,0.00,VWS V14.01,2013-03-26 12:02:00,
2013-03-26 08:07:00,34.7,22.7,29.84,North,4,4.5,4.5,61,0.00,,---,0.00,VWS V14.01,2013-03-26 12:07:00,
2013-03-26 08:13:00,34.7,22.7,29.84,WNW,298,0.0,5.8,61,0.00,,---,0.00,VWS V14.01,2013-03-26 12:13:00,
2013-03-26 08:18:00,34.9,22.9,29.84,NW,312,0.0,0.0,61,0.00,,---,0.00,VWS V14.01,2013-03-26 12:18:00,
2013-03-26 08:23:00,34.9,22.9,29.84,West,279,0.0,0.0,61,0.00,,---,0.00,VWS V14.01,2013-03-26 12:23:00,
2013-03-26 08:28:00,34.9,22.9,29.84,SSW,201,3.9,6.5,61,0.00,,---,0.00,VWS V14.01,2013-03-26 12:28:00,
2013-03-26 08:33:00,34.9,22.9,29.84,NW,318,0.0,0.0,61,0.00,,---,0.00,VWS V14.01,2013-03-26 12:33:00,
2013-03-26 08:38:00,34.9,22.9,29.84,NW,311,7.8,7.8,61,0.00,,---,0.00,VWS V14.01,2013-03-26 12:38:00,
2013-03-26 08:43:00,34.9,22.9,29.84,WNW,282,0.0,3.2,61,0.00,,---,0.00,VWS V14.01,2013-03-26 12:43:00,
2013-03-26 08:49:00,35.1,23.0,29.84,WNW,303,0.0,0.0,61,0.00,,---,0.00,VWS V14.01,2013-03-26 12:49:00,
2013-03-26 08:54:00,35.1,23.0,29.84,North,349,0.0,0.0,61,0.00,,---,0.00,VWS V14.01,2013-03-26 12:54:00,
2013-03-26 08:59:00,35.2,23.2,29.87,West,281,5.2,5.2,61,0.00,,---,0.00,VWS V14.01,2013-03-26 12:59:00,
2013-03-26 09:04:00,35.2,23.2,29.87,WNW,300,0.0,5.8,61,0.00,,---,0.00,VWS V14.01,2013-03-26 13:04:00,
2013-03-26 09:09:00,35.4,23.4,29.87,NNE,14,0.0,0.0,61,0.00,,---,0.00,VWS V14.01,2013-03-26 13:09:00,
2013-03-26 09:14:00,35.6,23.6,29.87,SW,233,0.0,0.0,61,0.00,,---,0.00,VWS V14.01,2013-03-26 13:14:00,
2013-03-26 09:19:00,35.6,23.6,29.87,NNW,333,0.0,3.2,61,0.00,,---,0.00,VWS V14.01,2013-03-26 13:19:00,
2013-03-26 09:24:00,35.8,23.7,29.87,NNW,342,0.0,3.9,61,0.00,,---,0.00,VWS V14.01,2013-03-26 13:24:00,
2013-03-26 09:29:00,36.0,23.9,29.87,NNW,336,0.0,0.0,61,0.00,,---,0.00,VWS V14.01,2013-03-26 13:29:00,
2013-03-26 09:34:00,36.1,24.1,29.87,NW,306,0.0,0.0,61,0.00,,---,0.00,VWS V14.01,2013-03-26 13:34:00,
2013-03-26 09:39:00,36.3,24.2,29.87,NW,316,0.0,4.5,61,0.00,,---,0.00,VWS V14.01,2013-03-26 13:39:00,
2013-03-26 09:45:00,36.7,24.6,29.87,NNW,327,0.0,3.9,61,0.00,,---,0.00,VWS V14.01,2013-03-26 13:45:00,
2013-03-26 09:50:00,37.2,25.1,29.87,NNW,335,4.5,4.5,61,0.00,,---,0.00,VWS V14.01,2013-03-26 13:50:00,
2013-03-26 09:55:00,37.6,24.9,29.87,NNW,346,0.0,0.0,60,0.00,,---,0.00,VWS V14.01,2013-03-26 13:55:00,
2013-03-26 10:00:00,37.6,24.3,29.87,North,353,0.0,8.4,58,0.00,,---,0.00,VWS V14.01,2013-03-26 14:00:00,
2013-03-26 10:05:00,37.4,23.6,29.87,NW,325,5.2,5.2,57,0.00,,---,0.00,VWS V14.01,2013-03-26 14:05:00,
2013-03-26 10:10:00,37.6,23.7,29.87,NNW,343,5.8,7.8,57,0.00,,---,0.00,VWS V14.01,2013-03-26 14:10:00,
2013-03-26 10:15:00,37.9,24.1,29.87,WNW,287,4.5,5.2,57,0.00,,---,0.00,VWS V14.01,2013-03-26 14:15:00,
2013-03-26 10:20:00,38.3,24.4,29.87,North,357,4.5,5.8,57,0.00,,---,0.00,VWS V14.01,2013-03-26 14:20:00,
2013-03-26 10:25:00,39.0,25.7,29.87,North,6,5.2,7.8,58,0.00,,---,0.00,VWS V14.01,2013-03-26 14:25:00,
2013-03-26 10:30:00,39.7,26.3,29.90,North,4,3.9,8.4,58,0.00,,---,0.00,VWS V14.01,2013-03-26 14:30:00,
2013-03-26 10:36:00,40.1,26.1,29.90,NNE,24,8.4,11.7,57,0.00,,---,0.00,VWS V14.01,2013-03-26 14:36:00,
2013-03-26 10:41:00,40.3,26.3,29.90,NNE,21,5.8,5.8,57,0.00,,---,0.00,VWS V14.01,2013-03-26 14:41:00,
2013-03-26 10:46:00,39.7,25.8,29.90,NE,51,11.7,11.7,57,0.00,,---,0.00,VWS V14.01,2013-03-26 14:46:00,
2013-03-26 10:51:00,39.0,25.1,29.90,NE,55,9.1,9.1,57,0.00,,---,0.00,VWS V14.01,2013-03-26 14:51:00,
2013-03-26 10:57:00,38.5,24.6,29.90,NE,54,7.8,9.1,57,0.00,,---,0.00,VWS V14.01,2013-03-26 14:57:00,
2013-03-26 11:02:00,37.9,24.1,29.90,North,353,11.0,11.0,57,0.00,,---,0.00,VWS V14.01,2013-03-26 15:02:00,
2013-03-26 11:07:00,37.6,23.7,29.90,NE,40,10.4,10.4,57,0.00,,---,0.00,VWS V14.01,2013-03-26 15:07:00,
2013-03-26 11:12:00,37.6,23.7,29.90,North,6,7.8,8.4,57,0.00,,---,0.00,VWS V14.01,2013-03-26 15:12:00,
2013-03-26 11:17:00,37.4,24.1,29.90,NNE,33,7.8,8.4,58,0.00,,---,0.00,VWS V14.01,2013-03-26 15:17:00,
2013-03-26 11:22:00,37.4,24.1,29.90,North,11,3.2,4.5,58,0.00,,---,0.00,VWS V14.01,2013-03-26 15:22:00,
2013-03-26 11:27:00,37.6,24.3,29.90,ENE,59,4.5,7.1,58,0.00,,---,0.00,VWS V14.01,2013-03-26 15:27:00,
2013-03-26 11:32:00,37.8,24.5,29.90,NE,35,5.2,7.1,58,0.00,,---,0.00,VWS V14.01,2013-03-26 15:32:00,
2013-03-26 11:37:00,37.9,25.2,29.90,North,357,5.8,5.8,60,0.00,,---,0.00,VWS V14.01,2013-03-26 15:37:00,
2013-03-26 11:42:00,37.9,25.2,29.90,NE,43,4.5,7.8,60,0.00,,---,0.00,VWS V14.01,2013-03-26 15:42:00,
2013-03-26 11:47:00,37.9,25.2,29.90,NE,46,3.9,5.2,60,0.00,,---,0.00,VWS V14.01,2013-03-26 15:47:00,
2013-03-26 11:53:00,38.3,26.1,29.90,North,353,8.4,8.4,61,0.00,,---,0.00,VWS V14.01,2013-03-26 15:53:00,
2013-03-26 11:58:00,38.7,25.9,29.93,North,4,7.8,10.4,60,0.00,,---,0.00,VWS V14.01,2013-03-26 15:58:00,
2013-03-26 12:03:00,38.7,25.9,29.93,North,353,5.8,9.1,60,0.00,,---,0.00,VWS V14.01,2013-03-26 16:03:00,
2013-03-26 12:08:00,38.7,25.9,29.93,North,353,5.8,9.1,60,0.00,,---,0.00,VWS V14.01,2013-03-26 16:08:00,
2013-03-26 12:13:00,38.7,25.3,29.93,NW,318,3.9,11.7,58,0.00,,---,0.00,VWS V14.01,2013-03-26 16:13:00,
2013-03-26 12:18:00,38.7,25.9,29.93,North,10,7.8,7.8,60,0.00,,---,0.00,VWS V14.01,2013-03-26 16:18:00,
2013-03-26 12:23:00,38.7,25.9,29.93,NW,309,4.5,4.5,60,0.00,,---,0.00,VWS V14.01,2013-03-26 16:23:00,
2013-03-26 12:28:00,38.8,25.5,29.93,WNW,303,0.0,0.0,58,0.00,,---,0.00,VWS V14.01,2013-03-26 16:28:00,
2013-03-26 12:33:00,39.0,25.7,29.93,NNW,339,5.8,7.8,58,0.00,,---,0.00,VWS V14.01,2013-03-26 16:33:00,
2013-03-26 12:38:00,39.2,25.3,29.93,NNW,343,3.9,3.9,57,0.00,,---,0.00,VWS V14.01,2013-03-26 16:38:00,
2013-03-26 12:43:00,39.4,25.4,29.93,North,353,9.1,9.1,57,0.00,,---,0.00,VWS V14.01,2013-03-26 16:43:00,
2013-03-26 12:48:00,39.6,25.0,29.93,NNW,335,6.5,7.1,56,0.00,,---,0.00,VWS V14.01,2013-03-26 16:48:00,
2013-03-26 12:53:00,39.9,25.3,29.93,NNE,28,7.8,9.1,56,0.00,,---,0.00,VWS V14.01,2013-03-26 16:53:00,
2013-03-26 12:59:00,40.5,25.8,29.90,NNW,339,8.4,9.1,56,0.00,,---,0.00,VWS V14.01,2013-03-26 16:59:00,
2013-03-26 13:04:00,41.0,25.1,29.90,North,353,12.0,12.0,53,0.00,,---,0.00,VWS V14.01,2013-03-26 17:04:00,
2013-03-26 13:09:00,41.0,25.1,29.90,NNW,336,10.4,10.4,53,0.00,,---,0.00,VWS V14.01,2013-03-26 17:09:00,
2013-03-26 13:14:00,41.0,23.8,29.93,NNW,330,5.8,10.4,50,0.00,,---,0.00,VWS V14.01,2013-03-26 17:14:00,
2013-03-26 13:19:00,41.0,23.8,29.93,NW,312,0.0,5.8,50,0.00,,---,0.00,VWS V14.01,2013-03-26 17:19:00,
2013-03-26 13:24:00,41.0,23.1,29.93,NW,322,9.1,9.1,49,0.00,,---,0.00,VWS V14.01,2013-03-26 17:24:00,
2013-03-26 13:29:00,41.0,23.1,29.90,NNW,339,15.2,15.2,49,0.00,,---,0.00,VWS V14.01,2013-03-26 17:29:00,
2013-03-26 13:35:00,40.6,22.1,29.90,NW,321,9.1,12.6,47,0.00,,---,0.00,VWS V14.01,2013-03-26 17:35:00,
2013-03-26 13:40:00,40.3,22.5,29.90,North,353,7.8,7.8,49,0.00,,---,0.00,VWS V14.01,2013-03-26 17:40:00,
2013-03-26 13:45:00,40.5,22.6,29.93,NNW,348,11.7,12.6,49,0.00,,---,0.00,VWS V14.01,2013-03-26 17:45:00,
2013-03-26 13:50:00,40.5,22.6,29.93,NW,315,5.8,5.8,49,0.00,,---,0.00,VWS V14.01,2013-03-26 17:50:00,
2013-03-26 13:55:00,40.6,22.8,29.93,NNW,335,7.1,15.2,49,0.00,,---,0.00,VWS V14.01,2013-03-26 17:55:00,
2013-03-26 14:00:00,40.5,22.0,29.93,NNW,335,9.1,15.9,47,0.00,,---,0.00,VWS V14.01,2013-03-26 18:00:00,
2013-03-26 14:05:00,40.3,21.8,29.93,NNW,328,11.7,18.5,47,0.00,,---,0.00,VWS V14.01,2013-03-26 18:05:00,
2013-03-26 14:10:00,39.9,22.1,29.93,NNW,346,11.7,15.9,49,0.00,,---,0.00,VWS V14.01,2013-03-26 18:10:00,
2013-03-26 14:15:00,40.1,22.3,29.93,North,0,12.6,12.6,49,0.00,,---,0.00,VWS V14.01,2013-03-26 18:15:00,
2013-03-26 14:20:00,40.5,22.6,29.93,NW,326,7.8,12.0,49,0.00,,---,0.00,VWS V14.01,2013-03-26 18:20:00,
2013-03-26 14:25:00,40.6,23.5,29.93,North,353,4.5,5.8,50,0.00,,---,0.00,VWS V14.01,2013-03-26 18:25:00,
2013-03-26 14:30:00,41.0,23.1,29.93,North,353,9.1,11.0,49,0.00,,---,0.00,VWS V14.01,2013-03-26 18:30:00,
2013-03-26 14:36:00,41.0,23.1,29.93,NW,322,9.1,9.1,49,0.00,,---,0.00,VWS V14.01,2013-03-26 18:36:00,
2013-03-26 14:41:00,40.8,23.0,29.93,WNW,297,4.5,12.0,49,0.00,,---,0.00,VWS V14.01,2013-03-26 18:41:00,
2013-03-26 14:46:00,40.6,22.8,29.93,NW,324,11.0,11.0,49,0.00,,---,0.00,VWS V14.01,2013-03-26 18:46:00,
2013-03-26 14:51:00,40.6,22.8,29.93,NNW,336,5.2,5.8,49,0.00,,---,0.00,VWS V14.01,2013-03-26 18:51:00,
2013-03-26 14:56:00,41.0,23.8,29.93,NNW,344,8.4,8.4,50,0.00,,---,0.00,VWS V14.01,2013-03-26 18:56:00,
2013-03-26 15:01:00,41.7,24.5,29.93,NNW,327,5.8,8.4,50,0.00,,---,0.00,VWS V14.01,2013-03-26 19:01:00,
2013-03-26 15:07:00,42.3,25.0,29.93,NNW,344,12.6,12.6,50,0.00,,---,0.00,VWS V14.01,2013-03-26 19:07:00,
2013-03-26 15:12:00,42.3,23.6,29.93,North,357,3.9,12.0,47,0.00,,---,0.00,VWS V14.01,2013-03-26 19:12:00,
2013-03-26 15:17:00,42.1,24.1,29.93,North,6,12.0,12.0,49,0.00,,---,0.00,VWS V14.01,2013-03-26 19:17:00,
2013-03-26 15:22:00,41.9,22.6,29.93,NNW,341,7.8,7.8,46,0.00,,---,0.00,VWS V14.01,2013-03-26 19:22:00,
2013-03-26 15:27:00,41.5,22.2,29.93,NNW,331,9.1,9.1,46,0.00,,---,0.00,VWS V14.01,2013-03-26 19:27:00,
2013-03-26 15:32:00,41.4,21.4,29.93,NNW,341,11.7,12.0,44,0.00,,---,0.00,VWS V14.01,2013-03-26 19:32:00,
2013-03-26 15:37:00,41.2,21.9,29.93,NW,325,9.1,9.1,46,0.00,,---,0.00,VWS V14.01,2013-03-26 19:37:00,
2013-03-26 15:42:00,41.4,22.8,29.93,WNW,295,5.8,7.8,47,0.00,,---,0.00,VWS V14.01,2013-03-26 19:42:00,
2013-03-26 15:47:00,41.5,23.0,29.93,North,9,8.4,8.4,47,0.00,,---,0.00,VWS V14.01,2013-03-26 19:47:00,
2013-03-26 15:52:00,41.5,23.0,29.93,NNE,21,14.6,14.6,47,0.00,,---,0.00,VWS V14.01,2013-03-26 19:52:00,
2013-03-26 15:58:00,41.4,22.1,29.93,NNW,340,9.1,17.8,46,0.00,,---,0.00,VWS V14.01,2013-03-26 19:58:00,
2013-03-26 16:03:00,41.2,21.9,29.93,NNW,341,7.8,12.6,46,0.00,,---,0.00,VWS V14.01,2013-03-26 20:03:00,
2013-03-26 16:08:00,41.2,21.9,29.93,NNE,28,7.8,12.6,46,0.00,,---,0.00,VWS V14.01,2013-03-26 20:08:00,
2013-03-26 16:13:00,41.0,21.8,29.93,NNW,333,7.1,8.4,46,0.00,,---,0.00,VWS V14.01,2013-03-26 20:13:00,
2013-03-26 16:18:00,41.2,22.6,29.93,NW,326,9.1,9.1,47,0.00,,---,0.00,VWS V14.01,2013-03-26 20:18:00,
2013-03-26 16:23:00,41.5,23.0,29.93,NE,36,11.7,11.7,47,0.00,,---,0.00,VWS V14.01,2013-03-26 20:23:00,
2013-03-26 16:28:00,41.5,23.0,29.93,NNE,14,5.8,7.8,47,0.00,,---,0.00,VWS V14.01,2013-03-26 20:28:00,
2013-03-26 16:33:00,41.5,23.0,29.93,NNW,336,4.5,7.8,47,0.00,,---,0.00,VWS V14.01,2013-03-26 20:33:00,
2013-03-26 16:38:00,41.5,23.0,29.93,North,6,7.8,11.0,47,0.00,,---,0.00,VWS V14.01,2013-03-26 20:38:00,
2013-03-26 16:44:00,41.5,23.0,29.93,NNE,14,11.0,11.7,47,0.00,,---,0.00,VWS V14.01,2013-03-26 20:44:00,
2013-03-26 16:49:00,41.5,23.0,29.93,NNW,336,5.2,9.1,47,0.00,,---,0.00,VWS V14.01,2013-03-26 20:49:00,
2013-03-26 16:54:00,41.5,23.0,29.93,North,353,7.1,7.1,47,0.00,,---,0.00,VWS V14.01,2013-03-26 20:54:00,
2013-03-26 16:59:00,41.9,23.3,29.93,NNE,20,7.8,7.8,47,0.00,,---,0.00,VWS V14.01,2013-03-26 20:59:00,
2013-03-26 17:04:00,42.3,23.6,29.93,North,353,9.1,11.0,47,0.00,,---,0.00,VWS V14.01,2013-03-26 21:04:00,
2013-03-26 17:09:00,42.4,23.8,29.93,NNW,335,11.7,11.7,47,0.00,,---,0.00,VWS V14.01,2013-03-26 21:09:00,
2013-03-26 17:14:00,42.8,23.4,29.93,North,353,13.9,13.9,46,0.00,,---,0.00,VWS V14.01,2013-03-26 21:14:00,
2013-03-26 17:19:00,42.8,23.4,29.93,NNW,339,5.8,11.7,46,0.00,,---,0.00,VWS V14.01,2013-03-26 21:19:00,
2013-03-26 17:25:00,42.8,23.4,29.93,NNW,339,5.2,9.1,46,0.00,,---,0.00,VWS V14.01,2013-03-26 21:25:00,
2013-03-26 17:30:00,42.8,22.7,29.93,NNE,19,12.6,12.6,44,0.00,,---,0.00,VWS V14.01,2013-03-26 21:30:00,
2013-03-26 17:35:00,42.4,22.3,29.93,North,4,11.0,12.0,44,0.00,,---,0.00,VWS V14.01,2013-03-26 21:35:00,
2013-03-26 17:40:00,42.3,22.9,29.93,NNW,345,15.2,15.2,46,0.00,,---,0.00,VWS V14.01,2013-03-26 21:40:00,
2013-03-26 17:45:00,42.1,22.0,29.93,NNW,334,12.6,18.5,44,0.00,,---,0.00,VWS V14.01,2013-03-26 21:45:00,
2013-03-26 17:50:00,41.5,21.5,29.93,NNW,338,11.0,11.0,44,0.00,,---,0.00,VWS V14.01,2013-03-26 21:50:00,
2013-03-26 17:55:00,41.2,21.2,29.93,WNW,287,11.0,11.0,44,0.00,,---,0.00,VWS V14.01,2013-03-26 21:55:00,
2013-03-26 18:00:00,41.0,21.8,29.93,North,350,5.8,12.0,46,0.00,,---,0.00,VWS V14.01,2013-03-26 22:00:00,
2013-03-26 18:05:00,40.6,21.4,29.93,NW,326,5.8,5.8,46,0.00,,---,0.00,VWS V14.01,2013-03-26 22:05:00,
2013-03-26 18:10:00,40.5,22.0,29.93,North,11,7.1,7.8,47,0.00,,---,0.00,VWS V14.01,2013-03-26 22:10:00,
2013-03-26 18:15:00,40.5,22.0,29.96,NW,323,5.2,5.2,47,0.00,,---,0.00,VWS V14.01,2013-03-26 22:15:00,
2013-03-26 18:20:00,40.5,22.6,29.96,NW,326,7.8,11.0,49,0.00,,---,0.00,VWS V14.01,2013-03-26 22:20:00,
2013-03-26 18:26:00,40.6,22.8,29.96,NW,317,3.9,9.1,49,0.00,,---,0.00,VWS V14.01,2013-03-26 22:26:00,
2013-03-26 18:31:00,41.0,23.1,29.96,NNW,341,8.4,8.4,49,0.00,,---,0.00,VWS V14.01,2013-03-26 22:31:00,
2013-03-26 18:36:00,41.0,23.1,29.96,NNW,339,5.8,5.8,49,0.00,,---,0.00,VWS V14.01,2013-03-26 22:36:00,
2013-03-26 18:42:00,40.6,22.8,29.96,NNW,338,9.7,9.7,49,0.00,,---,0.00,VWS V14.01,2013-03-26 22:42:00,
2013-03-26 18:47:00,40.3,22.5,29.96,NW,325,5.2,5.8,49,0.00,,---,0.00,VWS V14.01,2013-03-26 22:47:00,
2013-03-26 18:52:00,39.9,22.1,29.96,NNW,345,5.2,5.2,49,0.00,,---,0.00,VWS V14.01,2013-03-26 22:52:00,
2013-03-26 18:57:00,39.7,22.0,29.96,North,350,7.1,7.1,49,0.00,,---,0.00,VWS V14.01,2013-03-26 22:57:00,
2013-03-26 19:02:00,39.6,22.5,29.96,NNW,339,5.2,5.8,50,0.00,,---,0.00,VWS V14.01,2013-03-26 23:02:00,
2013-03-26 19:07:00,39.4,22.3,29.96,North,357,3.9,3.9,50,0.00,,---,0.00,VWS V14.01,2013-03-26 23:07:00,
2013-03-26 19:12:00,39.4,22.3,29.96,North,11,3.9,3.9,50,0.00,,---,0.00,VWS V14.01,2013-03-26 23:12:00,
2013-03-26 19:18:00,39.4,21.7,29.96,North,357,0.0,3.9,49,0.00,,---,0.00,VWS V14.01,2013-03-26 23:18:00,
2013-03-26 19:23:00,39.2,21.5,29.96,North,0,0.0,4.5,49,0.00,,---,0.00,VWS V14.01,2013-03-26 23:23:00,
2013-03-26 19:28:00,39.2,21.5,29.99,NNW,343,0.0,3.2,49,0.00,,---,0.00,VWS V14.01,2013-03-26 23:28:00,
2013-03-26 19:33:00,38.8,21.8,29.99,NNW,337,12.0,13.3,50,0.00,,---,0.00,VWS V14.01,2013-03-26 23:33:00,
2013-03-26 19:38:00,38.7,21.7,29.99,NW,319,7.1,8.4,50,0.00,,---,0.00,VWS V14.01,2013-03-26 23:38:00,
2013-03-26 19:43:00,38.7,21.7,29.99,North,353,4.5,5.2,50,0.00,,---,0.00,VWS V14.01,2013-03-26 23:43:00,
2013-03-26 19:48:00,38.5,21.5,29.99,NW,315,12.6,12.6,50,0.00,,---,0.00,VWS V14.01,2013-03-26 23:48:00,
2013-03-26 19:53:00,38.5,21.5,29.99,North,0,7.1,12.0,50,0.00,,---,0.00,VWS V14.01,2013-03-26 23:53:00,
2013-03-26 19:58:00,38.5,21.5,29.99,North,349,12.6,12.6,50,0.00,,---,0.00,VWS V14.01,2013-03-26 23:58:00,
2013-03-26 20:03:00,38.5,21.5,29.99,NW,311,8.4,9.1,50,0.00,,---,0.00,VWS V14.01,2013-03-27 00:03:00,
2013-03-26 20:09:00,38.5,21.5,29.99,North,353,5.8,7.8,50,0.00,,---,0.00,VWS V14.01,2013-03-27 00:09:00,
2013-03-26 20:14:00,38.5,21.5,29.99,NW,322,9.1,11.0,50,0.00,,---,0.00,VWS V14.01,2013-03-27 00:14:00,
2013-03-26 20:19:00,38.5,21.5,29.99,NNW,341,5.8,9.1,50,0.00,,---,0.00,VWS V14.01,2013-03-27 00:19:00,
2013-03-26 20:24:00,38.5,21.5,29.99,NNW,339,5.8,7.1,50,0.00,,---,0.00,VWS V14.01,2013-03-27 00:24:00,
2013-03-26 20:29:00,38.5,21.5,30.02,NNW,343,7.8,11.0,50,0.00,,---,0.00,VWS V14.01,2013-03-27 00:29:00,
2013-03-26 20:34:00,38.5,21.5,30.02,NNW,337,9.1,9.7,50,0.00,,---,0.00,VWS V14.01,2013-03-27 00:34:00,
2013-03-26 20:39:00,38.5,21.5,30.02,NW,326,8.4,9.1,50,0.00,,---,0.00,VWS V14.01,2013-03-27 00:39:00,
2013-03-26 20:44:00,38.5,21.5,30.02,NNW,328,9.1,9.1,50,0.00,,---,0.00,VWS V14.01,2013-03-27 00:44:00,
2013-03-26 20:49:00,38.5,21.5,30.02,NNW,334,4.5,5.8,50,0.00,,---,0.00,VWS V14.01,2013-03-27 00:49:00,
2013-03-26 20:54:00,38.5,21.5,30.02,NNW,345,7.8,7.8,50,0.00,,---,0.00,VWS V14.01,2013-03-27 00:54:00,
2013-03-26 20:59:00,38.3,21.3,30.02,NNW,342,3.9,7.8,50,0.00,,---,0.00,VWS V14.01,2013-03-27 00:59:00,
2013-03-26 21:04:00,38.1,21.2,30.02,NNW,335,7.1,11.0,50,0.00,,---,0.00,VWS V14.01,2013-03-27 01:04:00,
2013-03-26 21:10:00,37.9,21.0,30.02,North,353,7.8,8.4,50,0.00,,---,0.00,VWS V14.01,2013-03-27 01:10:00,
2013-03-26 21:15:00,37.8,20.8,30.02,NNW,327,5.2,5.8,50,0.00,,---,0.00,VWS V14.01,2013-03-27 01:15:00,
2013-03-26 21:20:00,37.6,20.7,30.02,NNW,329,5.2,7.8,50,0.00,,---,0.00,VWS V14.01,2013-03-27 01:20:00,
2013-03-26 21:25:00,37.4,20.5,30.02,NNW,336,7.8,7.8,50,0.00,,---,0.00,VWS V14.01,2013-03-27 01:25:00,
2013-03-26 21:30:00,37.2,21.0,30.02,North,0,3.9,5.2,51,0.00,,---,0.00,VWS V14.01,2013-03-27 01:30:00,
2013-03-26 21:35:00,37.0,20.8,30.02,NNW,341,7.1,8.4,51,0.00,,---,0.00,VWS V14.01,2013-03-27 01:35:00,
2013-03-26 21:40:00,36.9,21.3,30.02,NNW,329,5.2,9.1,53,0.00,,---,0.00,VWS V14.01,2013-03-27 01:40:00,
2013-03-26 21:45:00,36.7,21.1,30.02,NNW,338,9.1,9.1,53,0.00,,---,0.00,VWS V14.01,2013-03-27 01:45:00,
2013-03-26 21:50:00,36.5,21.5,30.02,NNW,344,7.8,9.1,54,0.00,,---,0.00,VWS V14.01,2013-03-27 01:50:00,
2013-03-26 21:56:00,36.3,21.4,30.02,NNW,333,4.5,7.8,54,0.00,,---,0.00,VWS V14.01,2013-03-27 01:56:00,
2013-03-26 22:01:00,36.3,21.4,30.05,North,349,3.9,7.8,54,0.00,,---,0.00,VWS V14.01,2013-03-27 02:01:00,
2013-03-26 22:06:00,36.1,21.2,30.05,NW,316,5.8,9.1,54,0.00,,---,0.00,VWS V14.01,2013-03-27 02:06:00,
2013-03-26 22:12:00,36.0,21.6,30.05,North,350,3.9,5.8,56,0.00,,---,0.00,VWS V14.01,2013-03-27 02:12:00,
2013-03-26 22:17:00,36.0,21.6,30.05,NNW,335,0.0,4.5,56,0.00,,---,0.00,VWS V14.01,2013-03-27 02:17:00,
2013-03-26 22:22:00,35.8,21.5,30.05,NNW,337,0.0,3.9,56,0.00,,---,0.00,VWS V14.01,2013-03-27 02:22:00,
2013-03-26 22:27:00,35.6,21.3,30.05,NNW,341,3.2,4.5,56,0.00,,---,0.00,VWS V14.01,2013-03-27 02:27:00,
2013-03-26 22:32:00,35.4,21.1,30.05,North,353,3.2,3.2,56,0.00,,---,0.00,VWS V14.01,2013-03-27 02:32:00,
2013-03-26 22:37:00,35.4,21.1,30.05,NNW,348,4.5,4.5,56,0.00,,---,0.00,VWS V14.01,2013-03-27 02:37:00,
2013-03-26 22:42:00,35.4,21.1,30.05,NNW,344,3.9,4.5,56,0.00,,---,0.00,VWS V14.01,2013-03-27 02:42:00,
2013-03-26 22:47:00,35.4,21.1,30.05,NNW,343,5.2,5.2,56,0.00,,---,0.00,VWS V14.01,2013-03-27 02:47:00,
2013-03-26 22:52:00,35.4,21.1,30.05,NNW,335,3.9,3.9,56,0.00,,---,0.00,VWS V14.01,2013-03-27 02:52:00,
2013-03-26 22:57:00,35.2,21.0,30.05,NNW,333,0.0,0.0,56,0.00,,---,0.00,VWS V14.01,2013-03-27 02:57:00,
2013-03-26 23:03:00,35.1,20.8,30.05,NNW,341,3.2,3.2,56,0.00,,---,0.00,VWS V14.01,2013-03-27 03:03:00,
2013-03-26 23:08:00,34.9,20.6,30.05,NW,306,0.0,0.0,56,0.00,,---,0.00,VWS V14.01,2013-03-27 03:08:00,
2013-03-26 23:13:00,34.9,20.6,30.05,NNW,338,0.0,0.0,56,0.00,,---,0.00,VWS V14.01,2013-03-27 03:13:00,
2013-03-26 23:18:00,34.7,20.5,30.05,NNW,341,0.0,0.0,56,0.00,,---,0.00,VWS V14.01,2013-03-27 03:18:00,
2013-03-26 23:23:00,34.5,20.3,30.05,NNW,341,0.0,0.0,56,0.00,,---,0.00,VWS V14.01,2013-03-27 03:23:00,
2013-03-26 23:28:00,34.3,20.7,30.05,NW,313,0.0,0.0,57,0.00,,---,0.00,VWS V14.01,2013-03-27 03:28:00,
2013-03-26 23:33:00,34.3,20.7,30.05,NW,322,0.0,0.0,57,0.00,,---,0.00,VWS V14.01,2013-03-27 03:33:00,
2013-03-26 23:38:00,34.3,20.7,30.05,North,0,0.0,0.0,57,0.00,,---,0.00,VWS V14.01,2013-03-27 03:38:00,
2013-03-26 23:43:00,34.3,20.7,30.05,WNW,298,0.0,0.0,57,0.00,,---,0.00,VWS V14.01,2013-03-27 03:43:00,
2013-03-26 23:48:00,34.3,20.7,30.05,NNW,338,0.0,0.0,57,0.00,,---,0.00,VWS V14.01,2013-03-27 03:48:00,
2013-03-26 23:53:00,34.3,20.7,30.05,NW,324,0.0,3.9,57,0.00,,---,0.00,VWS V14.01,2013-03-27 03:53:00,
2013-03-26 23:59:00,34.3,20.7,30.05,NNW,337,4.5,5.2,57,0.00,,---,0.00,VWS V14.01,2013-03-27 03:59:00,